createdAt,value
2019-02-06T00:01:49.009Z,10.88
2019-02-06T00:04:19.709Z,10.82
2019-02-06T00:06:49.349Z,11.60
2019-02-06T00:09:32.148Z,11.40
2019-02-06T00:12:02.026Z,11.40
2019-02-06T00:14:30.849Z,10.98
2019-02-06T00:17:07.927Z,10.78
2019-02-06T00:19:36.807Z,11.57
2019-02-06T00:22:08.184Z,11.18
2019-02-06T00:24:44.122Z,11.53
2019-02-06T00:27:19.219Z,11.38
2019-02-06T00:30:01.334Z,10.90
2019-02-06T00:32:30.136Z,11.15
2019-02-06T00:34:58.834Z,11.63
2019-02-06T00:37:34.098Z,10.95
2019-02-06T00:40:03.077Z,11.73
2019-02-06T00:42:45.824Z,11.12
2019-02-06T00:45:15.580Z,10.93
2019-02-06T00:47:44.543Z,11.25
2019-02-06T00:50:21.041Z,10.68
2019-02-06T00:52:50.768Z,10.68
2019-02-06T00:55:19.699Z,10.93
2019-02-06T00:57:55.464Z,10.98
2019-02-06T01:00:24.551Z,10.53
2019-02-06T01:02:53.923Z,11.22
2019-02-06T01:05:37.997Z,10.70
2019-02-06T01:07:59.607Z,10.25
2019-02-06T01:10:44.168Z,10.38
2019-02-06T01:13:13.732Z,10.98
2019-02-06T01:15:43.583Z,10.98
2019-02-06T01:18:20.306Z,10.00
2019-02-06T01:20:49.096Z,10.70
2019-02-06T01:23:18.033Z,10.50
2019-02-06T01:25:53.588Z,9.83
2019-02-06T01:28:28.935Z,11.07
2019-02-06T01:31:13.307Z,10.80
2019-02-06T01:33:42.858Z,10.38
2019-02-06T01:36:11.666Z,10.25
2019-02-06T01:38:48.051Z,10.35
2019-02-06T01:41:17.475Z,10.67
2019-02-06T01:43:46.251Z,10.45
2019-02-06T01:46:21.538Z,9.93
2019-02-06T01:48:51.563Z,9.83
2019-02-06T01:51:20.349Z,9.87
2019-02-06T01:53:56.474Z,9.50
2019-02-06T01:56:25.307Z,9.95
2019-02-06T01:58:54.135Z,9.38
2019-02-06T02:01:29.560Z,9.83
2019-02-06T02:03:58.450Z,9.85
2019-02-06T02:06:27.274Z,9.93
2019-02-06T02:09:06.959Z,10.05
2019-02-06T02:11:41.841Z,9.38
2019-02-06T02:14:16.910Z,9.48
2019-02-06T02:16:47.354Z,9.77
2019-02-06T02:19:16.786Z,9.25
2019-02-06T02:21:52.016Z,9.68
2019-02-06T02:24:21.915Z,10.00
2019-02-06T02:27:04.406Z,9.75
2019-02-06T02:29:42.840Z,9.73
2019-02-06T02:32:18.058Z,9.50
2019-02-06T02:34:46.936Z,9.68
2019-02-06T02:37:16.529Z,9.50
2019-02-06T02:39:52.443Z,10.38
2019-02-06T02:42:21.200Z,9.83
2019-02-06T02:44:50.214Z,9.35
2019-02-06T02:47:25.450Z,10.05
2019-02-06T02:49:54.370Z,9.85
2019-02-06T02:52:23.520Z,9.93
2019-02-06T02:54:59.231Z,9.80
2019-02-06T02:57:27.964Z,9.75
2019-02-06T02:59:56.768Z,10.00
2019-02-06T03:02:43.952Z,9.55
2019-02-06T03:05:16.354Z,9.80
2019-02-06T03:07:45.258Z,9.97
2019-02-06T03:10:21.018Z,9.75
2019-02-06T03:12:56.358Z,10.10
2019-02-06T03:15:32.407Z,9.73
2019-02-06T03:18:01.118Z,9.93
2019-02-06T03:20:30.073Z,9.55
2019-02-06T03:23:06.585Z,9.40
2019-02-06T03:25:35.317Z,9.33
2019-02-06T03:28:17.580Z,9.90
2019-02-06T03:30:53.442Z,9.25
2019-02-06T03:33:28.438Z,10.25
2019-02-06T03:35:57.474Z,9.40
2019-02-06T03:38:26.315Z,9.63
2019-02-06T03:41:02.249Z,9.43
2019-02-06T03:43:31.296Z,9.88
2019-02-06T03:46:00.165Z,9.98
2019-02-06T03:48:36.020Z,9.75
2019-02-06T03:51:05.398Z,9.85
2019-02-06T03:53:34.204Z,10.15
2019-02-06T03:56:09.581Z,9.95
2019-02-06T03:58:38.357Z,10.20
2019-02-06T04:01:07.360Z,10.97
2019-02-06T04:03:43.063Z,10.35
2019-02-06T04:06:13.031Z,11.53
2019-02-06T04:08:42.471Z,11.30
2019-02-06T04:11:18.256Z,11.22
2019-02-06T04:13:53.736Z,11.57
2019-02-06T04:16:31.054Z,11.80
2019-02-06T04:18:59.794Z,12.45
2019-02-06T04:21:28.531Z,11.65
2019-02-06T04:24:04.130Z,11.50
2019-02-06T04:26:32.932Z,11.38
2019-02-06T04:29:15.983Z,12.53
2019-02-06T04:31:51.345Z,11.83
2019-02-06T04:34:26.584Z,11.50
2019-02-06T04:37:06.293Z,12.07
2019-02-06T04:39:27.107Z,11.85
2019-02-06T04:42:04.785Z,11.33
2019-02-06T04:44:34.667Z,11.68
2019-02-06T04:47:03.882Z,11.67
2019-02-06T04:49:39.012Z,12.00
2019-02-06T04:52:09.190Z,12.10
2019-02-06T04:54:38.289Z,12.53
2019-02-06T04:57:13.431Z,11.85
2019-02-06T04:59:43.920Z,11.85
2019-02-06T05:02:12.679Z,12.07
2019-02-06T05:04:51.658Z,12.18
2019-02-06T05:07:20.393Z,12.57
2019-02-06T05:09:50.201Z,12.60
2019-02-06T05:12:25.768Z,12.95
2019-02-06T05:15:01.524Z,12.60
2019-02-06T05:17:38.172Z,12.43
2019-02-06T05:20:19.773Z,13.10
2019-02-06T05:22:55.282Z,13.48
2019-02-06T05:25:26.338Z,14.07
2019-02-06T05:28:09.031Z,13.78
2019-02-06T05:30:45.199Z,14.43
2019-02-06T05:33:21.096Z,14.43
2019-02-06T05:35:53.073Z,15.45
2019-02-06T05:38:21.918Z,14.63
2019-02-06T05:40:58.728Z,15.53
2019-02-06T05:43:27.817Z,14.60
2019-02-06T05:45:56.543Z,14.70
2019-02-06T05:48:32.165Z,15.90
2019-02-06T05:51:00.930Z,15.45
2019-02-06T05:53:31.354Z,16.32
2019-02-06T05:56:10.653Z,15.45
2019-02-06T05:58:39.435Z,15.70
2019-02-06T06:01:09.398Z,16.15
2019-02-06T06:03:45.153Z,17.02
2019-02-06T06:06:16.366Z,16.48
2019-02-06T06:08:46.699Z,17.00
2019-02-06T06:11:22.889Z,16.85
2019-02-06T06:13:52.484Z,16.35
2019-02-06T06:16:35.813Z,16.73
2019-02-06T06:19:04.722Z,17.13
2019-02-06T06:21:33.508Z,17.00
2019-02-06T06:24:09.251Z,17.37
2019-02-06T06:26:39.652Z,17.62
2019-02-06T06:29:23.435Z,17.95
2019-02-06T06:31:59.273Z,18.05
2019-02-06T06:34:34.904Z,17.70
2019-02-06T06:37:04.192Z,17.70
2019-02-06T06:39:33.085Z,17.97
2019-02-06T06:42:08.792Z,18.40
2019-02-06T06:44:40.653Z,18.93
2019-02-06T06:47:09.778Z,18.55
2019-02-06T06:49:45.442Z,18.25
2019-02-06T06:52:14.193Z,18.27
2019-02-06T06:54:43.194Z,18.37
2019-02-06T06:57:19.237Z,19.12
2019-02-06T06:59:48.300Z,19.30
2019-02-06T07:02:17.346Z,18.77
2019-02-06T07:04:53.134Z,19.32
2019-02-06T07:07:22.010Z,19.62
2019-02-06T07:09:53.147Z,19.45
2019-02-06T07:12:31.162Z,20.30
2019-02-06T07:15:00.409Z,20.17
2019-02-06T07:17:43.201Z,20.90
2019-02-06T07:20:13.864Z,20.20
2019-02-06T07:22:42.703Z,21.25
2019-02-06T07:25:20.904Z,21.03
2019-02-06T07:27:49.896Z,21.87
2019-02-06T07:30:36.679Z,21.87
2019-02-06T07:33:12.340Z,21.23
2019-02-06T07:35:49.523Z,21.25
2019-02-06T07:38:24.488Z,21.17
2019-02-06T07:40:48.983Z,21.80
2019-02-06T07:43:24.246Z,22.00
2019-02-06T07:45:55.253Z,21.70
2019-02-06T07:48:24.181Z,21.65
2019-02-06T07:51:00.146Z,21.97
2019-02-06T07:53:28.986Z,21.48
2019-02-06T07:55:57.739Z,21.93
2019-02-06T07:58:33.373Z,22.30
2019-02-06T08:01:02.276Z,22.32
2019-02-06T08:03:31.061Z,21.40
2019-02-06T08:06:06.866Z,21.95
2019-02-06T08:08:36.443Z,22.50
2019-02-06T08:11:05.477Z,22.00
2019-02-06T08:13:41.361Z,20.97
2019-02-06T08:16:10.482Z,22.00
2019-02-06T08:18:53.478Z,21.55
2019-02-06T08:21:24.399Z,21.93
2019-02-06T08:23:53.160Z,21.07
2019-02-06T08:26:29.363Z,21.02
2019-02-06T08:28:58.221Z,21.45
2019-02-06T08:31:40.803Z,21.30
2019-02-06T08:34:16.689Z,21.42
2019-02-06T08:36:53.167Z,20.23
2019-02-06T08:39:22.309Z,21.40
2019-02-06T08:41:51.080Z,20.85
2019-02-06T08:44:26.450Z,21.12
2019-02-06T08:46:55.288Z,20.45
2019-02-06T08:49:24.348Z,20.77
2019-02-06T08:52:00.732Z,21.53
2019-02-06T08:54:30.107Z,21.27
2019-02-06T08:56:58.924Z,20.60
2019-02-06T08:59:36.231Z,20.43
2019-02-06T09:02:04.937Z,20.95
2019-02-06T09:04:34.027Z,20.12
2019-02-06T09:07:11.215Z,20.40
2019-02-06T09:09:40.134Z,19.65
2019-02-06T09:12:08.889Z,20.43
2019-02-06T09:14:44.505Z,19.85
2019-02-06T09:17:13.389Z,20.10
2019-02-06T09:19:55.568Z,19.87
2019-02-06T09:22:25.136Z,19.50
2019-02-06T09:24:54.040Z,18.32
2019-02-06T09:27:29.647Z,18.45
2019-02-06T09:30:05.873Z,17.87
2019-02-06T09:32:47.608Z,17.50
2019-02-06T09:35:16.755Z,18.00
2019-02-06T09:37:46.040Z,16.65
2019-02-06T09:40:23.843Z,17.17
2019-02-06T09:42:52.553Z,16.00
2019-02-06T09:45:21.671Z,16.85
2019-02-06T09:47:57.095Z,17.15
2019-02-06T09:50:28.992Z,16.30
2019-02-06T09:52:58.327Z,16.17
2019-02-06T09:55:34.236Z,15.80
2019-02-06T09:58:03.121Z,14.45
2019-02-06T10:00:35.491Z,14.67
2019-02-06T10:03:12.768Z,14.18
2019-02-06T10:05:42.311Z,12.05
2019-02-06T10:08:12.290Z,11.80
2019-02-06T10:10:48.477Z,11.27
2019-02-06T10:13:17.212Z,11.40
2019-02-06T10:15:47.291Z,10.18
2019-02-06T10:18:23.586Z,10.18
2019-02-06T10:20:59.357Z,9.48
2019-02-06T10:23:34.579Z,9.28
2019-02-06T10:26:04.796Z,8.80
2019-02-06T10:28:34.342Z,9.05
2019-02-06T10:31:09.710Z,8.45
2019-02-06T10:33:45.590Z,8.70
2019-02-06T10:36:20.952Z,8.25
2019-02-06T10:38:54.289Z,8.55
2019-02-06T10:41:23.181Z,7.75
2019-02-06T10:43:59.293Z,7.83
2019-02-06T10:46:30.112Z,7.78
2019-02-06T10:48:59.018Z,7.03
2019-02-06T10:51:34.089Z,7.10
2019-02-06T10:54:02.844Z,7.45
2019-02-06T10:56:32.053Z,7.58
2019-02-06T10:59:09.122Z,7.50
2019-02-06T11:01:38.699Z,7.55
2019-02-06T11:04:07.536Z,7.20
2019-02-06T11:06:43.288Z,6.63
2019-02-06T11:09:13.695Z,7.03
2019-02-06T11:11:43.180Z,6.95
2019-02-06T11:14:20.559Z,6.53
2019-02-06T11:16:49.481Z,6.67
2019-02-06T11:19:18.200Z,6.10
2019-02-06T11:22:00.320Z,5.78
2019-02-06T11:24:35.777Z,6.05
2019-02-06T11:27:11.696Z,6.10
2019-02-06T11:29:40.468Z,5.50
2019-02-06T11:32:29.390Z,5.70
2019-02-06T11:34:58.172Z,5.47
2019-02-06T11:37:27.277Z,4.92
2019-02-06T11:40:03.216Z,5.35
2019-02-06T11:42:32.080Z,4.50
2019-02-06T11:45:00.983Z,4.87
2019-02-06T11:47:36.179Z,4.70
2019-02-06T11:50:07.630Z,4.50
2019-02-06T11:52:36.359Z,4.60
2019-02-06T11:55:17.857Z,4.42
2019-02-06T11:57:46.763Z,4.40
2019-02-06T12:00:29.021Z,4.20
2019-02-06T12:02:57.869Z,4.30
2019-02-06T12:05:26.759Z,4.03
2019-02-06T12:08:02.804Z,4.10
2019-02-06T12:10:31.607Z,4.25
2019-02-06T12:13:00.568Z,4.12
2019-02-06T12:15:37.739Z,4.03
2019-02-06T12:18:07.231Z,4.03
2019-02-06T12:20:36.197Z,4.03
2019-02-06T12:23:18.492Z,4.12
2019-02-06T12:25:48.537Z,3.87
2019-02-06T12:28:18.330Z,4.00
2019-02-06T12:30:56.154Z,4.35
2019-02-06T12:33:31.332Z,4.12
2019-02-06T12:36:15.895Z,3.60
2019-02-06T12:38:53.151Z,4.03
2019-02-06T12:41:15.415Z,4.00
2019-02-06T12:43:50.672Z,3.77
2019-02-06T12:46:19.601Z,3.65
2019-02-06T12:48:48.588Z,3.65
2019-02-06T12:51:24.325Z,3.50
2019-02-06T12:53:53.405Z,3.65
2019-02-06T12:56:22.249Z,3.80
2019-02-06T12:58:57.154Z,3.50
2019-02-06T13:01:27.857Z,3.15
2019-02-06T13:03:56.729Z,4.00
2019-02-06T13:06:31.937Z,3.45
2019-02-06T13:09:00.752Z,3.37
2019-02-06T13:11:31.476Z,3.42
2019-02-06T13:14:06.735Z,3.33
2019-02-06T13:16:35.519Z,3.42
2019-02-06T13:19:04.648Z,3.67
2019-02-06T13:21:40.227Z,3.77
2019-02-06T13:24:15.977Z,3.77
2019-02-06T13:26:51.426Z,3.72
2019-02-06T13:29:20.618Z,3.67
2019-02-06T13:32:02.450Z,3.72
2019-02-06T13:34:38.097Z,4.12
2019-02-06T13:37:13.835Z,3.52
2019-02-06T13:39:44.235Z,3.37
2019-02-06T13:42:12.950Z,3.92
2019-02-06T13:44:48.641Z,3.75
2019-02-06T13:47:17.778Z,3.97
2019-02-06T13:49:47.065Z,4.20
2019-02-06T13:52:22.753Z,3.40
2019-02-06T13:54:51.729Z,4.10
2019-02-06T13:57:20.573Z,3.62
2019-02-06T13:59:56.301Z,3.67
2019-02-06T14:02:26.273Z,3.42
2019-02-06T14:04:55.993Z,3.87
2019-02-06T14:07:32.065Z,4.10
2019-02-06T14:10:00.842Z,4.03
2019-02-06T14:12:30.661Z,3.58
2019-02-06T14:15:06.510Z,3.90
2019-02-06T14:17:35.454Z,3.90
2019-02-06T14:20:07.223Z,3.83
2019-02-06T14:22:43.064Z,3.70
2019-02-06T14:25:25.408Z,3.77
2019-02-06T14:28:16.234Z,4.42
2019-02-06T14:31:08.763Z,3.62
2019-02-06T14:34:12.941Z,3.80
2019-02-06T14:37:08.830Z,4.37
2019-02-06T14:40:09.613Z,4.40
2019-02-06T14:43:12.305Z,4.25
2019-02-06T14:46:24.016Z,4.30
2019-02-06T14:49:02.807Z,4.80
2019-02-06T14:52:10.673Z,4.28
2019-02-06T14:54:49.940Z,4.60
2019-02-06T14:58:14.352Z,4.80
2019-02-06T15:01:08.736Z,4.55
2019-02-06T15:04:01.483Z,4.90
2019-02-06T15:06:42.664Z,5.03
2019-02-06T15:09:44.926Z,5.00
2019-02-06T15:12:55.280Z,5.33
2019-02-06T15:15:57.458Z,5.47
2019-02-06T15:18:56.836Z,5.20
2019-02-06T15:21:57.140Z,5.22
2019-02-06T15:24:48.880Z,4.95
2019-02-06T15:28:06.107Z,5.47
2019-02-06T15:31:20.389Z,5.03
2019-02-06T15:34:45.445Z,5.13
2019-02-06T15:37:48.914Z,5.12
2019-02-06T15:40:38.006Z,5.62
2019-02-06T15:43:16.363Z,5.83
2019-02-06T15:46:07.947Z,5.90
2019-02-06T15:48:49.359Z,5.63
2019-02-06T15:52:33.391Z,5.75
2019-02-06T15:55:35.175Z,5.70
2019-02-06T15:58:57.736Z,5.83
2019-02-06T16:02:09.467Z,5.85
2019-02-06T16:05:26.980Z,5.77
2019-02-06T16:08:14.733Z,5.85
2019-02-06T16:11:46.518Z,5.60
2019-02-06T16:15:09.603Z,6.10
2019-02-06T16:18:32.249Z,5.62
2019-02-06T16:21:52.813Z,6.08
2019-02-06T16:24:58.541Z,6.53
2019-02-06T16:28:05.568Z,6.75
2019-02-06T16:31:44.264Z,7.17
2019-02-06T16:34:58.944Z,6.65
2019-02-06T16:38:18.963Z,7.53
2019-02-06T16:41:10.105Z,8.03
2019-02-06T16:44:32.799Z,9.13
2019-02-06T16:47:45.755Z,9.20
2019-02-06T16:50:50.307Z,9.55
2019-02-06T16:53:33.707Z,8.83
2019-02-06T16:56:29.824Z,9.58
2019-02-06T16:59:27.888Z,9.40
2019-02-06T17:02:35.684Z,9.50
2019-02-06T17:05:37.284Z,9.88
2019-02-06T17:08:41.654Z,9.63
2019-02-06T17:12:04.370Z,9.30
2019-02-06T17:15:14.283Z,9.90
2019-02-06T17:17:51.489Z,10.00
2019-02-06T17:21:12.856Z,9.40
2019-02-06T17:23:52.792Z,9.80
2019-02-06T17:26:56.286Z,10.35
2019-02-06T17:29:44.782Z,9.55
2019-02-06T17:33:08.629Z,10.53
2019-02-06T17:36:15.520Z,9.78
2019-02-06T17:39:32.789Z,10.45
2019-02-06T17:42:16.002Z,10.60
2019-02-06T17:45:39.499Z,10.60
2019-02-06T17:48:44.578Z,10.88
2019-02-06T17:52:06.384Z,10.23
2019-02-06T17:54:55.928Z,10.70
2019-02-06T17:57:31.883Z,11.15
2019-02-06T18:00:01.261Z,10.98
2019-02-06T18:02:30.089Z,10.85
2019-02-06T18:05:05.638Z,11.30
2019-02-06T18:07:36.013Z,11.15
2019-02-06T18:10:14.653Z,11.10
2019-02-06T18:12:43.878Z,10.68
2019-02-06T18:15:12.707Z,10.55
2019-02-06T18:17:50.114Z,10.25
2019-02-06T18:20:19.035Z,11.80
2019-02-06T18:22:48.772Z,10.82
2019-02-06T18:25:24.840Z,11.08
2019-02-06T18:27:55.041Z,11.28
2019-02-06T18:30:25.114Z,10.93
2019-02-06T18:33:09.025Z,10.72
2019-02-06T18:35:45.248Z,10.70
2019-02-06T18:38:27.777Z,11.83
2019-02-06T18:40:56.714Z,11.50
2019-02-06T18:43:25.531Z,11.00
2019-02-06T18:46:03.692Z,11.20
2019-02-06T18:48:33.950Z,10.65
2019-02-06T18:51:02.896Z,10.58
2019-02-06T18:53:38.767Z,11.23
2019-02-06T18:56:07.790Z,12.10
2019-02-06T18:58:39.208Z,11.20
2019-02-06T19:01:15.680Z,10.55
2019-02-06T19:03:46.310Z,10.82
2019-02-06T19:06:18.802Z,11.22
2019-02-06T19:08:55.379Z,11.23
2019-02-06T19:11:25.445Z,11.38
2019-02-06T19:13:54.388Z,11.08
2019-02-06T19:16:30.195Z,11.33
2019-02-06T19:18:59.234Z,11.17
2019-02-06T19:21:28.060Z,10.43
2019-02-06T19:24:03.146Z,11.28
2019-02-06T19:26:36.011Z,11.10
2019-02-06T19:29:13.990Z,11.60
2019-02-06T19:31:43.193Z,10.72
2019-02-06T19:34:25.423Z,11.57
2019-02-06T19:37:00.615Z,10.90
2019-02-06T19:39:44.615Z,11.20
2019-02-06T19:42:13.815Z,11.03
2019-02-06T19:44:42.962Z,10.93
2019-02-06T19:47:21.235Z,11.10
2019-02-06T19:49:52.384Z,11.10
2019-02-06T19:52:21.339Z,11.70
2019-02-06T19:54:57.688Z,11.13
2019-02-06T19:57:26.524Z,11.78
2019-02-06T19:59:56.657Z,11.08
2019-02-06T20:02:31.941Z,11.10
2019-02-06T20:05:00.830Z,11.80
2019-02-06T20:07:29.641Z,12.47
2019-02-06T20:10:05.876Z,11.40
2019-02-06T20:12:34.661Z,11.25
2019-02-06T20:15:06.172Z,11.63
2019-02-06T20:17:41.241Z,11.33
2019-02-06T20:20:12.115Z,11.45
2019-02-06T20:22:41.056Z,11.25
2019-02-06T20:25:16.775Z,12.07
2019-02-06T20:27:45.694Z,11.95
2019-02-06T20:30:26.631Z,10.85
2019-02-06T20:32:56.299Z,11.28
2019-02-06T20:35:45.450Z,10.90
2019-02-06T20:38:21.281Z,11.63
2019-02-06T20:40:57.728Z,11.88
2019-02-06T20:43:29.057Z,11.83
2019-02-06T20:45:58.082Z,11.48
2019-02-06T20:48:33.433Z,11.53
2019-02-06T20:51:02.224Z,12.20
2019-02-06T20:53:31.792Z,11.50
2019-02-06T20:56:07.509Z,11.73
2019-02-06T20:58:38.643Z,11.60
2019-02-06T21:01:08.316Z,11.50
2019-02-06T21:03:43.483Z,11.25
2019-02-06T21:06:12.645Z,11.50
2019-02-06T21:08:41.428Z,11.40
2019-02-06T21:11:16.869Z,12.18
2019-02-06T21:13:46.078Z,11.43
2019-02-06T21:16:15.051Z,10.98
2019-02-06T21:18:52.047Z,11.57
2019-02-06T21:21:20.954Z,11.60
2019-02-06T21:23:49.708Z,11.40
2019-02-06T21:26:44.579Z,11.85
2019-02-06T21:29:20.067Z,11.12
2019-02-06T21:31:55.669Z,12.18
2019-02-06T21:34:24.495Z,12.10
2019-02-06T21:37:08.656Z,11.60
2019-02-06T21:39:37.463Z,12.03
2019-02-06T21:42:06.230Z,11.68
2019-02-06T21:44:41.963Z,12.15
2019-02-06T21:47:11.166Z,10.93
2019-02-06T21:49:40.332Z,11.47
2019-02-06T21:52:16.048Z,11.50
2019-02-06T21:54:47.053Z,11.43
2019-02-06T21:57:17.915Z,11.15
2019-02-06T21:59:54.138Z,11.63
2019-02-06T22:02:22.984Z,11.50
2019-02-06T22:04:51.756Z,11.33
2019-02-06T22:07:34.279Z,11.57
2019-02-06T22:10:04.228Z,11.45
2019-02-06T22:12:33.115Z,11.28
2019-02-06T22:15:10.779Z,10.65
2019-02-06T22:17:40.021Z,11.30
2019-02-06T22:20:10.386Z,11.40
2019-02-06T22:22:45.883Z,11.65
2019-02-06T22:25:15.140Z,11.05
2019-02-06T22:28:04.040Z,12.03
2019-02-06T22:30:33.082Z,11.05
2019-02-06T22:33:02.966Z,11.20
2019-02-06T22:35:38.850Z,11.80
2019-02-06T22:38:16.569Z,11.35
2019-02-06T22:40:52.657Z,10.90
2019-02-06T22:43:22.402Z,11.75
2019-02-06T22:45:51.234Z,11.22
2019-02-06T22:48:27.942Z,11.08
2019-02-06T22:50:57.514Z,11.65
2019-02-06T22:53:26.376Z,10.82
2019-02-06T22:56:01.479Z,11.00
2019-02-06T22:58:31.400Z,10.90
2019-02-06T23:01:24.710Z,10.95
2019-02-06T23:03:54.092Z,10.58
2019-02-06T23:06:23.475Z,11.68
2019-02-06T23:08:59.554Z,10.23
2019-02-06T23:11:28.567Z,10.60
2019-02-06T23:13:58.156Z,11.18
2019-02-06T23:16:33.919Z,10.95
2019-02-06T23:19:04.823Z,11.05
2019-02-06T23:21:33.775Z,11.60
2019-02-06T23:24:09.785Z,11.28
2019-02-06T23:26:40.115Z,10.90
2019-02-06T23:29:21.498Z,10.72
2019-02-06T23:31:57.054Z,10.28
2019-02-06T23:34:33.665Z,10.25
2019-02-06T23:37:02.507Z,11.25
2019-02-06T23:39:44.836Z,10.58
2019-02-06T23:42:15.055Z,10.88
2019-02-06T23:44:45.036Z,10.10
2019-02-06T23:47:19.999Z,10.15
2019-02-06T23:49:48.894Z,10.88
2019-02-06T23:52:18.125Z,10.78
2019-02-06T23:54:53.638Z,11.33
2019-02-06T23:57:22.373Z,10.05
2019-02-06T23:59:52.531Z,10.05
